sensor_id;sensor_type;location;lat;lon;timestamp;P1;durP1;ratioP1;P2;durP2;ratioP2
18378;SDS011;27025;51.986;5.984;2023-04-07T00:01:51;67.10;;;43.80;;
18378;SDS011;27025;51.986;5.984;2023-04-07T00:04:17;68.23;;;43.57;;
18378;SDS011;27025;51.986;5.984;2023-04-07T00:06:43;73.73;;;44.80;;
18378;SDS011;27025;51.986;5.984;2023-04-07T00:09:09;76.10;;;44.77;;
18378;SDS011;27025;51.986;5.984;2023-04-07T00:11:35;70.67;;;44.53;;
18378;SDS011;27025;51.986;5.984;2023-04-07T00:14:01;76.07;;;45.23;;
18378;SDS011;27025;51.986;5.984;2023-04-07T00:16:27;78.63;;;45.47;;
18378;SDS011;27025;51.986;5.984;2023-04-07T00:18:53;78.90;;;45.30;;
18378;SDS011;27025;51.986;5.984;2023-04-07T00:21:20;78.20;;;45.43;;
18378;SDS011;27025;51.986;5.984;2023-04-07T00:23:45;77.57;;;45.53;;
18378;SDS011;27025;51.986;5.984;2023-04-07T00:26:12;80.73;;;44.20;;
18378;SDS011;27025;51.986;5.984;2023-04-07T00:28:38;80.57;;;43.67;;
18378;SDS011;27025;51.986;5.984;2023-04-07T00:31:04;72.07;;;42.03;;
18378;SDS011;27025;51.986;5.984;2023-04-07T00:33:30;79.70;;;42.77;;
18378;SDS011;27025;51.986;5.984;2023-04-07T00:35:56;74.67;;;41.67;;
18378;SDS011;27025;51.986;5.984;2023-04-07T00:38:22;66.90;;;39.43;;
18378;SDS011;27025;51.986;5.984;2023-04-07T00:40:48;69.87;;;40.63;;
18378;SDS011;27025;51.986;5.984;2023-04-07T00:43:15;70.60;;;38.37;;
18378;SDS011;27025;51.986;5.984;2023-04-07T00:45:41;70.93;;;38.47;;
18378;SDS011;27025;51.986;5.984;2023-04-07T00:48:07;70.73;;;38.53;;
18378;SDS011;27025;51.986;5.984;2023-04-07T00:50:34;70.27;;;37.63;;
18378;SDS011;27025;51.986;5.984;2023-04-07T00:53:00;70.73;;;37.23;;
18378;SDS011;27025;51.986;5.984;2023-04-07T00:55:27;68.33;;;36.17;;
18378;SDS011;27025;51.986;5.984;2023-04-07T00:57:52;66.93;;;35.60;;
18378;SDS011;27025;51.986;5.984;2023-04-07T01:00:19;60.50;;;34.53;;
18378;SDS011;27025;51.986;5.984;2023-04-07T01:02:47;62.70;;;33.87;;
18378;SDS011;27025;51.986;5.984;2023-04-07T01:05:19;58.20;;;32.57;;
18378;SDS011;27025;51.986;5.984;2023-04-07T01:10:35;61.47;;;32.77;;
18378;SDS011;27025;51.986;5.984;2023-04-07T01:13:07;64.10;;;32.53;;
18378;SDS011;27025;51.986;5.984;2023-04-07T01:15:34;54.47;;;31.67;;
18378;SDS011;27025;51.986;5.984;2023-04-07T01:18:12;58.10;;;32.13;;
18378;SDS011;27025;51.986;5.984;2023-04-07T01:20:38;60.20;;;32.57;;
18378;SDS011;27025;51.986;5.984;2023-04-07T01:23:05;62.37;;;33.63;;
18378;SDS011;27025;51.986;5.984;2023-04-07T01:25:57;62.43;;;33.27;;
18378;SDS011;27025;51.986;5.984;2023-04-07T01:28:33;63.40;;;32.77;;
18378;SDS011;27025;51.986;5.984;2023-04-07T01:31:06;65.43;;;34.73;;
18378;SDS011;27025;51.986;5.984;2023-04-07T01:33:34;71.23;;;34.03;;
18378;SDS011;27025;51.986;5.984;2023-04-07T01:36:01;70.60;;;34.50;;
18378;SDS011;27025;51.986;5.984;2023-04-07T01:38:29;66.47;;;34.03;;
18378;SDS011;27025;51.986;5.984;2023-04-07T01:40:56;57.23;;;32.53;;
18378;SDS011;27025;51.986;5.984;2023-04-07T01:43:23;64.43;;;33.33;;
18378;SDS011;27025;51.986;5.984;2023-04-07T01:45:50;62.57;;;33.03;;
18378;SDS011;27025;51.986;5.984;2023-04-07T01:48:17;61.00;;;32.87;;
18378;SDS011;27025;51.986;5.984;2023-04-07T01:50:43;56.17;;;32.33;;
18378;SDS011;27025;51.986;5.984;2023-04-07T01:53:09;57.70;;;30.00;;
18378;SDS011;27025;51.986;5.984;2023-04-07T01:55:36;56.13;;;30.10;;
18378;SDS011;27025;51.986;5.984;2023-04-07T01:58:03;59.43;;;30.30;;
18378;SDS011;27025;51.986;5.984;2023-04-07T02:00:30;56.27;;;29.53;;
18378;SDS011;27025;51.986;5.984;2023-04-07T02:02:57;55.63;;;30.73;;
18378;SDS011;27025;51.986;5.984;2023-04-07T02:05:24;53.97;;;29.37;;
18378;SDS011;27025;51.986;5.984;2023-04-07T02:08:00;48.43;;;26.63;;
18378;SDS011;27025;51.986;5.984;2023-04-07T02:10:27;47.30;;;25.17;;
18378;SDS011;27025;51.986;5.984;2023-04-07T02:12:54;41.70;;;24.10;;
18378;SDS011;27025;51.986;5.984;2023-04-07T02:15:21;48.57;;;25.73;;
18378;SDS011;27025;51.986;5.984;2023-04-07T02:17:48;41.33;;;23.43;;
18378;SDS011;27025;51.986;5.984;2023-04-07T02:20:16;38.03;;;21.97;;
18378;SDS011;27025;51.986;5.984;2023-04-07T02:22:42;38.73;;;22.53;;
18378;SDS011;27025;51.986;5.984;2023-04-07T02:25:22;39.57;;;22.87;;
18378;SDS011;27025;51.986;5.984;2023-04-07T02:27:49;41.13;;;22.87;;
18378;SDS011;27025;51.986;5.984;2023-04-07T02:30:15;39.93;;;22.77;;
18378;SDS011;27025;51.986;5.984;2023-04-07T02:32:47;36.13;;;21.47;;
18378;SDS011;27025;51.986;5.984;2023-04-07T02:35:14;40.73;;;22.03;;
18378;SDS011;27025;51.986;5.984;2023-04-07T02:37:41;41.63;;;22.23;;
18378;SDS011;27025;51.986;5.984;2023-04-07T02:40:07;38.13;;;22.40;;
18378;SDS011;27025;51.986;5.984;2023-04-07T02:42:33;40.73;;;22.77;;
18378;SDS011;27025;51.986;5.984;2023-04-07T02:45:00;40.00;;;23.87;;
18378;SDS011;27025;51.986;5.984;2023-04-07T02:47:26;47.50;;;23.53;;
18378;SDS011;27025;51.986;5.984;2023-04-07T02:49:52;42.00;;;23.07;;
18378;SDS011;27025;51.986;5.984;2023-04-07T02:52:18;42.53;;;24.47;;
18378;SDS011;27025;51.986;5.984;2023-04-07T02:54:45;37.37;;;22.90;;
18378;SDS011;27025;51.986;5.984;2023-04-07T02:57:11;39.83;;;23.83;;
18378;SDS011;27025;51.986;5.984;2023-04-07T02:59:38;40.10;;;24.47;;
18378;SDS011;27025;51.986;5.984;2023-04-07T03:02:04;39.10;;;23.63;;
18378;SDS011;27025;51.986;5.984;2023-04-07T03:04:30;37.23;;;22.67;;
18378;SDS011;27025;51.986;5.984;2023-04-07T03:06:56;40.30;;;23.43;;
18378;SDS011;27025;51.986;5.984;2023-04-07T03:09:22;35.17;;;21.77;;
18378;SDS011;27025;51.986;5.984;2023-04-07T03:11:48;38.93;;;22.67;;
18378;SDS011;27025;51.986;5.984;2023-04-07T03:14:15;41.33;;;22.97;;
18378;SDS011;27025;51.986;5.984;2023-04-07T03:16:41;34.57;;;21.47;;
18378;SDS011;27025;51.986;5.984;2023-04-07T03:19:07;39.10;;;22.10;;
18378;SDS011;27025;51.986;5.984;2023-04-07T03:21:34;35.07;;;21.70;;
18378;SDS011;27025;51.986;5.984;2023-04-07T03:24:01;32.47;;;22.00;;
18378;SDS011;27025;51.986;5.984;2023-04-07T03:26:27;34.37;;;21.17;;
18378;SDS011;27025;51.986;5.984;2023-04-07T03:28:53;37.50;;;21.30;;
18378;SDS011;27025;51.986;5.984;2023-04-07T03:31:19;39.20;;;20.67;;
18378;SDS011;27025;51.986;5.984;2023-04-07T03:33:45;36.10;;;20.47;;
18378;SDS011;27025;51.986;5.984;2023-04-07T03:36:11;41.03;;;21.30;;
18378;SDS011;27025;51.986;5.984;2023-04-07T03:38:37;35.07;;;21.23;;
18378;SDS011;27025;51.986;5.984;2023-04-07T03:41:03;37.87;;;20.47;;
18378;SDS011;27025;51.986;5.984;2023-04-07T03:43:29;40.03;;;20.70;;
18378;SDS011;27025;51.986;5.984;2023-04-07T03:45:56;36.87;;;21.43;;
18378;SDS011;27025;51.986;5.984;2023-04-07T03:48:22;31.73;;;21.30;;
18378;SDS011;27025;51.986;5.984;2023-04-07T03:50:48;41.37;;;20.03;;
18378;SDS011;27025;51.986;5.984;2023-04-07T03:53:14;27.27;;;16.50;;
18378;SDS011;27025;51.986;5.984;2023-04-07T03:55:41;28.67;;;17.27;;
18378;SDS011;27025;51.986;5.984;2023-04-07T03:58:08;29.03;;;16.73;;
18378;SDS011;27025;51.986;5.984;2023-04-07T04:00:34;29.40;;;17.97;;
18378;SDS011;27025;51.986;5.984;2023-04-07T04:03:00;32.07;;;18.90;;
18378;SDS011;27025;51.986;5.984;2023-04-07T04:05:26;32.13;;;19.37;;
18378;SDS011;27025;51.986;5.984;2023-04-07T04:07:52;38.33;;;20.33;;
18378;SDS011;27025;51.986;5.984;2023-04-07T04:10:19;39.30;;;20.20;;
18378;SDS011;27025;51.986;5.984;2023-04-07T04:12:46;35.63;;;19.97;;
18378;SDS011;27025;51.986;5.984;2023-04-07T04:15:12;35.13;;;20.47;;
18378;SDS011;27025;51.986;5.984;2023-04-07T04:17:38;38.23;;;19.97;;
18378;SDS011;27025;51.986;5.984;2023-04-07T04:20:05;34.43;;;19.97;;
18378;SDS011;27025;51.986;5.984;2023-04-07T04:22:31;35.27;;;19.73;;
18378;SDS011;27025;51.986;5.984;2023-04-07T04:24:58;37.33;;;20.57;;
18378;SDS011;27025;51.986;5.984;2023-04-07T04:27:24;40.93;;;20.33;;
18378;SDS011;27025;51.986;5.984;2023-04-07T04:29:50;38.43;;;19.53;;
18378;SDS011;27025;51.986;5.984;2023-04-07T04:32:16;36.43;;;20.73;;
18378;SDS011;27025;51.986;5.984;2023-04-07T04:34:42;28.90;;;17.87;;
18378;SDS011;27025;51.986;5.984;2023-04-07T04:37:08;35.70;;;19.33;;
18378;SDS011;27025;51.986;5.984;2023-04-07T04:39:34;26.20;;;15.37;;
18378;SDS011;27025;51.986;5.984;2023-04-07T04:42:00;34.58;;;19.50;;
18378;SDS011;27025;51.986;5.984;2023-04-07T04:44:27;28.47;;;17.00;;
18378;SDS011;27025;51.986;5.984;2023-04-07T04:46:54;31.13;;;16.63;;
18378;SDS011;27025;51.986;5.984;2023-04-07T04:49:20;32.30;;;17.53;;
18378;SDS011;27025;51.986;5.984;2023-04-07T04:51:46;32.97;;;17.57;;
18378;SDS011;27025;51.986;5.984;2023-04-07T04:54:12;34.13;;;17.93;;
18378;SDS011;27025;51.986;5.984;2023-04-07T04:56:38;32.40;;;19.00;;
18378;SDS011;27025;51.986;5.984;2023-04-07T04:59:04;39.40;;;20.20;;
18378;SDS011;27025;51.986;5.984;2023-04-07T05:01:31;34.00;;;19.90;;
18378;SDS011;27025;51.986;5.984;2023-04-07T05:03:57;37.80;;;20.10;;
18378;SDS011;27025;51.986;5.984;2023-04-07T05:06:23;42.23;;;20.97;;
18378;SDS011;27025;51.986;5.984;2023-04-07T05:08:49;43.67;;;21.00;;
18378;SDS011;27025;51.986;5.984;2023-04-07T05:11:15;40.80;;;21.70;;
18378;SDS011;27025;51.986;5.984;2023-04-07T05:13:41;36.87;;;20.40;;
18378;SDS011;27025;51.986;5.984;2023-04-07T05:16:07;37.87;;;21.23;;
18378;SDS011;27025;51.986;5.984;2023-04-07T05:18:33;39.40;;;22.20;;
18378;SDS011;27025;51.986;5.984;2023-04-07T05:20:59;39.10;;;20.83;;
18378;SDS011;27025;51.986;5.984;2023-04-07T05:23:28;39.20;;;21.33;;
18378;SDS011;27025;51.986;5.984;2023-04-07T05:25:54;37.77;;;22.33;;
18378;SDS011;27025;51.986;5.984;2023-04-07T05:28:20;42.03;;;22.33;;
18378;SDS011;27025;51.986;5.984;2023-04-07T05:30:46;35.80;;;20.03;;
18378;SDS011;27025;51.986;5.984;2023-04-07T05:33:12;38.43;;;21.23;;
18378;SDS011;27025;51.986;5.984;2023-04-07T05:35:38;34.67;;;20.87;;
18378;SDS011;27025;51.986;5.984;2023-04-07T05:38:04;41.57;;;21.13;;
18378;SDS011;27025;51.986;5.984;2023-04-07T05:40:31;29.67;;;20.20;;
18378;SDS011;27025;51.986;5.984;2023-04-07T05:42:57;35.67;;;19.17;;
18378;SDS011;27025;51.986;5.984;2023-04-07T05:45:23;32.20;;;19.47;;
18378;SDS011;27025;51.986;5.984;2023-04-07T05:47:49;30.47;;;18.83;;
18378;SDS011;27025;51.986;5.984;2023-04-07T05:50:16;33.00;;;19.67;;
18378;SDS011;27025;51.986;5.984;2023-04-07T05:52:42;29.37;;;17.63;;
18378;SDS011;27025;51.986;5.984;2023-04-07T05:55:08;32.40;;;17.80;;
18378;SDS011;27025;51.986;5.984;2023-04-07T05:57:34;25.83;;;17.67;;
18378;SDS011;27025;51.986;5.984;2023-04-07T06:00:00;32.40;;;18.50;;
18378;SDS011;27025;51.986;5.984;2023-04-07T06:02:26;26.97;;;18.30;;
18378;SDS011;27025;51.986;5.984;2023-04-07T06:04:52;30.97;;;18.10;;
18378;SDS011;27025;51.986;5.984;2023-04-07T06:07:18;30.40;;;18.57;;
18378;SDS011;27025;51.986;5.984;2023-04-07T06:09:44;29.50;;;18.80;;
18378;SDS011;27025;51.986;5.984;2023-04-07T06:12:10;27.73;;;18.33;;
18378;SDS011;27025;51.986;5.984;2023-04-07T06:14:37;30.20;;;17.87;;
18378;SDS011;27025;51.986;5.984;2023-04-07T06:17:03;27.77;;;17.97;;
18378;SDS011;27025;51.986;5.984;2023-04-07T06:19:31;28.00;;;18.10;;
18378;SDS011;27025;51.986;5.984;2023-04-07T06:21:57;27.63;;;17.50;;
18378;SDS011;27025;51.986;5.984;2023-04-07T06:24:26;26.90;;;18.17;;
18378;SDS011;27025;51.986;5.984;2023-04-07T06:26:52;27.70;;;17.50;;
18378;SDS011;27025;51.986;5.984;2023-04-07T06:29:19;29.33;;;18.13;;
18378;SDS011;27025;51.986;5.984;2023-04-07T06:31:48;29.43;;;17.93;;
18378;SDS011;27025;51.986;5.984;2023-04-07T06:34:16;27.50;;;17.83;;
18378;SDS011;27025;51.986;5.984;2023-04-07T06:36:44;28.87;;;17.57;;
18378;SDS011;27025;51.986;5.984;2023-04-07T06:39:11;27.03;;;17.43;;
18378;SDS011;27025;51.986;5.984;2023-04-07T06:41:37;22.40;;;16.03;;
18378;SDS011;27025;51.986;5.984;2023-04-07T06:44:03;31.60;;;17.57;;
18378;SDS011;27025;51.986;5.984;2023-04-07T06:46:29;29.03;;;16.73;;
18378;SDS011;27025;51.986;5.984;2023-04-07T06:48:55;23.87;;;15.83;;
18378;SDS011;27025;51.986;5.984;2023-04-07T06:51:21;29.57;;;15.97;;
18378;SDS011;27025;51.986;5.984;2023-04-07T06:53:47;28.13;;;14.40;;
18378;SDS011;27025;51.986;5.984;2023-04-07T06:56:13;25.03;;;14.97;;
18378;SDS011;27025;51.986;5.984;2023-04-07T06:58:42;25.80;;;15.00;;
18378;SDS011;27025;51.986;5.984;2023-04-07T07:01:08;27.00;;;14.73;;
18378;SDS011;27025;51.986;5.984;2023-04-07T07:03:34;25.00;;;14.13;;
18378;SDS011;27025;51.986;5.984;2023-04-07T07:06:00;21.53;;;14.30;;
18378;SDS011;27025;51.986;5.984;2023-04-07T07:08:27;25.37;;;14.20;;
18378;SDS011;27025;51.986;5.984;2023-04-07T07:10:53;29.80;;;14.57;;
18378;SDS011;27025;51.986;5.984;2023-04-07T07:13:21;24.30;;;14.60;;
18378;SDS011;27025;51.986;5.984;2023-04-07T07:15:47;24.30;;;13.17;;
18378;SDS011;27025;51.986;5.984;2023-04-07T07:18:13;22.47;;;13.30;;
18378;SDS011;27025;51.986;5.984;2023-04-07T07:20:40;20.47;;;13.77;;
18378;SDS011;27025;51.986;5.984;2023-04-07T07:23:06;23.03;;;13.73;;
18378;SDS011;27025;51.986;5.984;2023-04-07T07:25:34;20.67;;;13.60;;
18378;SDS011;27025;51.986;5.984;2023-04-07T07:28:01;20.80;;;13.10;;
18378;SDS011;27025;51.986;5.984;2023-04-07T07:30:27;16.57;;;10.77;;
18378;SDS011;27025;51.986;5.984;2023-04-07T07:32:53;16.27;;;10.67;;
18378;SDS011;27025;51.986;5.984;2023-04-07T07:35:21;17.33;;;9.67;;
18378;SDS011;27025;51.986;5.984;2023-04-07T07:37:49;13.77;;;9.13;;
18378;SDS011;27025;51.986;5.984;2023-04-07T07:40:16;12.80;;;8.77;;
18378;SDS011;27025;51.986;5.984;2023-04-07T07:42:42;12.10;;;8.23;;
18378;SDS011;27025;51.986;5.984;2023-04-07T07:45:08;14.27;;;8.50;;
18378;SDS011;27025;51.986;5.984;2023-04-07T07:47:36;13.67;;;8.13;;
18378;SDS011;27025;51.986;5.984;2023-04-07T07:50:22;12.07;;;8.13;;
18378;SDS011;27025;51.986;5.984;2023-04-07T07:52:51;11.87;;;8.60;;
18378;SDS011;27025;51.986;5.984;2023-04-07T07:55:17;13.60;;;8.10;;
18378;SDS011;27025;51.986;5.984;2023-04-07T07:58:02;12.07;;;8.47;;
18378;SDS011;27025;51.986;5.984;2023-04-07T08:00:31;11.70;;;8.07;;
18378;SDS011;27025;51.986;5.984;2023-04-07T08:02:57;13.57;;;7.73;;
18378;SDS011;27025;51.986;5.984;2023-04-07T08:05:24;10.27;;;7.20;;
18378;SDS011;27025;51.986;5.984;2023-04-07T08:07:51;10.20;;;7.40;;
18378;SDS011;27025;51.986;5.984;2023-04-07T08:10:17;6.97;;;5.93;;
18378;SDS011;27025;51.986;5.984;2023-04-07T08:12:44;7.73;;;6.10;;
18378;SDS011;27025;51.986;5.984;2023-04-07T08:15:13;7.37;;;5.17;;
18378;SDS011;27025;51.986;5.984;2023-04-07T08:17:39;7.83;;;4.90;;
18378;SDS011;27025;51.986;5.984;2023-04-07T08:20:05;6.97;;;5.23;;
18378;SDS011;27025;51.986;5.984;2023-04-07T08:22:34;8.13;;;6.00;;
18378;SDS011;27025;51.986;5.984;2023-04-07T08:25:09;7.33;;;5.17;;
18378;SDS011;27025;51.986;5.984;2023-04-07T08:27:35;6.77;;;4.80;;
18378;SDS011;27025;51.986;5.984;2023-04-07T08:30:02;8.47;;;4.80;;
18378;SDS011;27025;51.986;5.984;2023-04-07T08:32:36;6.80;;;4.40;;
18378;SDS011;27025;51.986;5.984;2023-04-07T08:35:10;5.20;;;4.30;;
18378;SDS011;27025;51.986;5.984;2023-04-07T08:37:39;8.10;;;4.27;;
18378;SDS011;27025;51.986;5.984;2023-04-07T08:40:08;4.90;;;4.13;;
18378;SDS011;27025;51.986;5.984;2023-04-07T08:42:34;4.80;;;3.50;;
18378;SDS011;27025;51.986;5.984;2023-04-07T08:45:05;5.87;;;3.73;;
18378;SDS011;27025;51.986;5.984;2023-04-07T08:47:33;4.70;;;4.10;;
18378;SDS011;27025;51.986;5.984;2023-04-07T08:50:08;5.57;;;4.30;;
18378;SDS011;27025;51.986;5.984;2023-04-07T08:52:39;6.30;;;4.30;;
18378;SDS011;27025;51.986;5.984;2023-04-07T08:58:08;6.57;;;4.60;;
18378;SDS011;27025;51.986;5.984;2023-04-07T09:00:37;5.97;;;4.57;;
18378;SDS011;27025;51.986;5.984;2023-04-07T09:03:14;6.90;;;4.50;;
18378;SDS011;27025;51.986;5.984;2023-04-07T09:05:42;5.77;;;4.20;;
18378;SDS011;27025;51.986;5.984;2023-04-07T09:08:10;5.27;;;4.33;;
18378;SDS011;27025;51.986;5.984;2023-04-07T09:10:36;6.20;;;5.07;;
18378;SDS011;27025;51.986;5.984;2023-04-07T09:13:02;9.60;;;5.00;;
18378;SDS011;27025;51.986;5.984;2023-04-07T09:15:31;8.70;;;5.43;;
18378;SDS011;27025;51.986;5.984;2023-04-07T09:17:58;7.03;;;5.77;;
18378;SDS011;27025;51.986;5.984;2023-04-07T09:20:24;7.37;;;5.57;;
18378;SDS011;27025;51.986;5.984;2023-04-07T09:22:50;7.83;;;5.50;;
18378;SDS011;27025;51.986;5.984;2023-04-07T09:25:17;11.80;;;5.97;;
18378;SDS011;27025;51.986;5.984;2023-04-07T09:30:39;6.80;;;5.83;;
18378;SDS011;27025;51.986;5.984;2023-04-07T09:33:17;8.07;;;5.63;;
18378;SDS011;27025;51.986;5.984;2023-04-07T09:35:51;6.33;;;5.37;;
18378;SDS011;27025;51.986;5.984;2023-04-07T09:38:17;7.93;;;5.07;;
18378;SDS011;27025;51.986;5.984;2023-04-07T09:40:43;9.13;;;5.20;;
18378;SDS011;27025;51.986;5.984;2023-04-07T09:43:16;7.13;;;5.47;;
18378;SDS011;27025;51.986;5.984;2023-04-07T09:45:42;9.27;;;5.10;;
18378;SDS011;27025;51.986;5.984;2023-04-07T09:48:19;7.33;;;4.87;;
18378;SDS011;27025;51.986;5.984;2023-04-07T09:50:47;7.33;;;4.93;;
18378;SDS011;27025;51.986;5.984;2023-04-07T09:53:14;7.90;;;7.20;;
18378;SDS011;27025;51.986;5.984;2023-04-07T09:55:42;10.87;;;9.70;;
18378;SDS011;27025;51.986;5.984;2023-04-07T09:58:10;9.57;;;8.53;;
18378;SDS011;27025;51.986;5.984;2023-04-07T10:00:37;12.10;;;7.13;;
18378;SDS011;27025;51.986;5.984;2023-04-07T10:03:04;10.17;;;7.93;;
18378;SDS011;27025;51.986;5.984;2023-04-07T10:05:31;25.60;;;22.20;;
18378;SDS011;27025;51.986;5.984;2023-04-07T10:07:57;62.40;;;46.07;;
18378;SDS011;27025;51.986;5.984;2023-04-07T10:10:23;20.23;;;10.47;;
18378;SDS011;27025;51.986;5.984;2023-04-07T10:12:50;24.40;;;19.63;;
18378;SDS011;27025;51.986;5.984;2023-04-07T10:15:18;21.20;;;14.83;;
18378;SDS011;27025;51.986;5.984;2023-04-07T10:17:45;15.83;;;10.70;;
18378;SDS011;27025;51.986;5.984;2023-04-07T10:20:16;14.83;;;9.33;;
18378;SDS011;27025;51.986;5.984;2023-04-07T10:22:42;18.90;;;11.00;;
18378;SDS011;27025;51.986;5.984;2023-04-07T10:25:10;19.23;;;11.20;;
18378;SDS011;27025;51.986;5.984;2023-04-07T10:27:53;16.10;;;10.43;;
18378;SDS011;27025;51.986;5.984;2023-04-07T10:30:28;15.07;;;8.33;;
18378;SDS011;27025;51.986;5.984;2023-04-07T10:32:55;13.73;;;8.43;;
18378;SDS011;27025;51.986;5.984;2023-04-07T10:35:21;13.70;;;7.73;;
18378;SDS011;27025;51.986;5.984;2023-04-07T10:40:32;8.63;;;6.10;;
18378;SDS011;27025;51.986;5.984;2023-04-07T10:42:58;11.77;;;6.30;;
18378;SDS011;27025;51.986;5.984;2023-04-07T10:48:10;11.90;;;6.00;;
18378;SDS011;27025;51.986;5.984;2023-04-07T10:50:37;9.57;;;6.30;;
18378;SDS011;27025;51.986;5.984;2023-04-07T10:53:04;9.33;;;5.97;;
18378;SDS011;27025;51.986;5.984;2023-04-07T10:55:39;10.37;;;6.27;;
18378;SDS011;27025;51.986;5.984;2023-04-07T10:58:26;8.77;;;5.90;;
18378;SDS011;27025;51.986;5.984;2023-04-07T11:03:37;9.67;;;5.43;;
18378;SDS011;27025;51.986;5.984;2023-04-07T11:06:04;10.27;;;4.97;;
18378;SDS011;27025;51.986;5.984;2023-04-07T11:08:31;7.53;;;4.77;;
18378;SDS011;27025;51.986;5.984;2023-04-07T11:10:57;7.47;;;4.70;;
18378;SDS011;27025;51.986;5.984;2023-04-07T11:13:23;5.80;;;4.67;;
18378;SDS011;27025;51.986;5.984;2023-04-07T11:15:50;6.30;;;4.33;;
18378;SDS011;27025;51.986;5.984;2023-04-07T11:18:20;7.77;;;4.50;;
18378;SDS011;27025;51.986;5.984;2023-04-07T11:20:51;5.73;;;4.40;;
18378;SDS011;27025;51.986;5.984;2023-04-07T11:23:19;9.17;;;5.20;;
18378;SDS011;27025;51.986;5.984;2023-04-07T11:25:46;8.17;;;5.20;;
18378;SDS011;27025;51.986;5.984;2023-04-07T11:28:13;8.53;;;5.90;;
18378;SDS011;27025;51.986;5.984;2023-04-07T11:30:49;9.23;;;5.93;;
18378;SDS011;27025;51.986;5.984;2023-04-07T11:33:17;8.03;;;5.67;;
18378;SDS011;27025;51.986;5.984;2023-04-07T11:35:56;9.43;;;6.30;;
18378;SDS011;27025;51.986;5.984;2023-04-07T11:38:26;9.77;;;6.67;;
18378;SDS011;27025;51.986;5.984;2023-04-07T11:40:53;11.30;;;6.97;;
18378;SDS011;27025;51.986;5.984;2023-04-07T11:43:20;11.13;;;7.40;;
18378;SDS011;27025;51.986;5.984;2023-04-07T11:46:09;10.43;;;7.50;;
18378;SDS011;27025;51.986;5.984;2023-04-07T11:48:36;11.00;;;7.10;;
18378;SDS011;27025;51.986;5.984;2023-04-07T11:51:02;11.57;;;7.50;;
18378;SDS011;27025;51.986;5.984;2023-04-07T11:53:32;11.97;;;7.33;;
18378;SDS011;27025;51.986;5.984;2023-04-07T11:58:25;10.33;;;7.43;;
18378;SDS011;27025;51.986;5.984;2023-04-07T12:01:01;10.97;;;7.53;;
18378;SDS011;27025;51.986;5.984;2023-04-07T12:03:30;10.87;;;7.93;;
18378;SDS011;27025;51.986;5.984;2023-04-07T12:05:57;10.87;;;7.23;;
18378;SDS011;27025;51.986;5.984;2023-04-07T12:08:35;13.40;;;7.47;;
18378;SDS011;27025;51.986;5.984;2023-04-07T12:11:02;11.70;;;7.77;;
18378;SDS011;27025;51.986;5.984;2023-04-07T12:13:28;11.83;;;7.40;;
18378;SDS011;27025;51.986;5.984;2023-04-07T12:15:54;13.47;;;9.50;;
18378;SDS011;27025;51.986;5.984;2023-04-07T12:18:21;52.07;;;30.87;;
18378;SDS011;27025;51.986;5.984;2023-04-07T12:20:47;29.00;;;15.80;;
18378;SDS011;27025;51.986;5.984;2023-04-07T12:23:14;32.83;;;18.73;;
18378;SDS011;27025;51.986;5.984;2023-04-07T12:25:40;22.47;;;12.83;;
18378;SDS011;27025;51.986;5.984;2023-04-07T12:28:06;35.57;;;27.77;;
18378;SDS011;27025;51.986;5.984;2023-04-07T12:30:32;28.83;;;22.20;;
18378;SDS011;27025;51.986;5.984;2023-04-07T12:32:58;31.20;;;26.30;;
18378;SDS011;27025;51.986;5.984;2023-04-07T12:35:27;17.37;;;15.50;;
18378;SDS011;27025;51.986;5.984;2023-04-07T12:37:53;16.73;;;14.20;;
18378;SDS011;27025;51.986;5.984;2023-04-07T12:40:20;13.37;;;10.37;;
18378;SDS011;27025;51.986;5.984;2023-04-07T12:42:46;13.53;;;9.17;;
18378;SDS011;27025;51.986;5.984;2023-04-07T12:45:12;12.77;;;9.23;;
18378;SDS011;27025;51.986;5.984;2023-04-07T12:47:38;11.13;;;8.67;;
18378;SDS011;27025;51.986;5.984;2023-04-07T12:50:05;11.37;;;7.93;;
18378;SDS011;27025;51.986;5.984;2023-04-07T12:52:31;13.83;;;8.10;;
18378;SDS011;27025;51.986;5.984;2023-04-07T12:54:57;13.77;;;8.47;;
18378;SDS011;27025;51.986;5.984;2023-04-07T12:57:23;12.63;;;8.17;;
18378;SDS011;27025;51.986;5.984;2023-04-07T12:59:50;11.60;;;8.37;;
18378;SDS011;27025;51.986;5.984;2023-04-07T13:02:17;13.70;;;8.80;;
18378;SDS011;27025;51.986;5.984;2023-04-07T13:04:43;14.43;;;7.83;;
18378;SDS011;27025;51.986;5.984;2023-04-07T13:07:13;13.23;;;8.10;;
18378;SDS011;27025;51.986;5.984;2023-04-07T13:09:40;15.43;;;9.13;;
18378;SDS011;27025;51.986;5.984;2023-04-07T13:12:09;11.83;;;8.50;;
18378;SDS011;27025;51.986;5.984;2023-04-07T13:14:39;12.90;;;7.60;;
18378;SDS011;27025;51.986;5.984;2023-04-07T13:17:05;13.67;;;7.43;;
18378;SDS011;27025;51.986;5.984;2023-04-07T13:19:32;10.50;;;7.63;;
18378;SDS011;27025;51.986;5.984;2023-04-07T13:21:58;11.07;;;8.13;;
18378;SDS011;27025;51.986;5.984;2023-04-07T13:24:24;10.30;;;7.67;;
18378;SDS011;27025;51.986;5.984;2023-04-07T13:26:51;9.87;;;7.63;;
18378;SDS011;27025;51.986;5.984;2023-04-07T13:29:17;11.63;;;7.00;;
18378;SDS011;27025;51.986;5.984;2023-04-07T13:31:46;9.50;;;7.70;;
18378;SDS011;27025;51.986;5.984;2023-04-07T13:34:12;10.43;;;7.07;;
18378;SDS011;27025;51.986;5.984;2023-04-07T13:36:39;13.63;;;7.10;;
18378;SDS011;27025;51.986;5.984;2023-04-07T13:39:05;13.20;;;7.57;;
18378;SDS011;27025;51.986;5.984;2023-04-07T13:41:32;12.10;;;7.83;;
18378;SDS011;27025;51.986;5.984;2023-04-07T13:43:58;13.13;;;8.47;;
18378;SDS011;27025;51.986;5.984;2023-04-07T13:46:25;11.03;;;7.87;;
18378;SDS011;27025;51.986;5.984;2023-04-07T13:48:51;12.10;;;7.63;;
18378;SDS011;27025;51.986;5.984;2023-04-07T13:51:17;10.73;;;7.27;;
18378;SDS011;27025;51.986;5.984;2023-04-07T13:53:44;11.60;;;7.60;;
18378;SDS011;27025;51.986;5.984;2023-04-07T13:56:10;12.27;;;7.03;;
18378;SDS011;27025;51.986;5.984;2023-04-07T13:58:36;14.43;;;7.30;;
18378;SDS011;27025;51.986;5.984;2023-04-07T14:01:02;12.90;;;8.00;;
18378;SDS011;27025;51.986;5.984;2023-04-07T14:03:29;16.80;;;7.97;;
18378;SDS011;27025;51.986;5.984;2023-04-07T14:05:55;13.03;;;7.53;;
18378;SDS011;27025;51.986;5.984;2023-04-07T14:08:25;14.73;;;7.50;;
18378;SDS011;27025;51.986;5.984;2023-04-07T14:10:51;15.93;;;7.80;;
18378;SDS011;27025;51.986;5.984;2023-04-07T14:13:17;12.47;;;7.47;;
18378;SDS011;27025;51.986;5.984;2023-04-07T14:15:43;17.30;;;7.60;;
18378;SDS011;27025;51.986;5.984;2023-04-07T14:18:09;11.63;;;6.93;;
18378;SDS011;27025;51.986;5.984;2023-04-07T14:20:35;10.30;;;7.30;;
18378;SDS011;27025;51.986;5.984;2023-04-07T14:23:01;12.20;;;7.20;;
18378;SDS011;27025;51.986;5.984;2023-04-07T14:25:27;11.67;;;6.73;;
18378;SDS011;27025;51.986;5.984;2023-04-07T14:27:53;10.40;;;6.23;;
18378;SDS011;27025;51.986;5.984;2023-04-07T14:30:20;9.40;;;6.90;;
18378;SDS011;27025;51.986;5.984;2023-04-07T14:32:46;10.97;;;6.33;;
18378;SDS011;27025;51.986;5.984;2023-04-07T14:35:12;7.93;;;5.53;;
18378;SDS011;27025;51.986;5.984;2023-04-07T14:37:38;8.60;;;5.80;;
18378;SDS011;27025;51.986;5.984;2023-04-07T14:40:04;7.67;;;5.40;;
18378;SDS011;27025;51.986;5.984;2023-04-07T14:42:30;7.13;;;5.20;;
18378;SDS011;27025;51.986;5.984;2023-04-07T14:44:58;8.20;;;5.33;;
18378;SDS011;27025;51.986;5.984;2023-04-07T14:47:24;8.73;;;5.03;;
18378;SDS011;27025;51.986;5.984;2023-04-07T14:49:51;9.23;;;5.27;;